sensor_id;sensor_type;location;lat;lon;timestamp;pressure;altitude;pressure_sealevel;temperature;humidity
10840;BME280;5473;42.706;23.328;2023-02-01T00:00:11;-10550.53;;;-142.93;100.00
10840;BME280;5473;42.706;23.328;2023-02-01T00:02:40;-10550.53;;;-142.93;100.00
10840;BME280;5473;42.706;23.328;2023-02-01T00:05:07;-10801.56;;;-142.93;100.00
10840;BME280;5473;42.706;23.328;2023-02-01T00:07:34;-10801.56;;;-142.93;100.00
10840;BME280;5473;42.706;23.328;2023-02-01T00:10:01;-10801.56;;;-142.93;100.00
10840;BME280;5473;42.706;23.328;2023-02-01T00:12:29;-10801.56;;;-142.93;100.00
10840;BME280;5473;42.706;23.328;2023-02-01T00:14:55;-10550.53;;;-142.93;100.00
10840;BME280;5473;42.706;23.328;2023-02-01T00:17:22;-10550.53;;;-142.93;100.00
10840;BME280;5473;42.706;23.328;2023-02-01T00:19:50;-10299.50;;;-142.93;100.00
10840;BME280;5473;42.706;23.328;2023-02-01T00:22:17;-10048.47;;;-142.93;100.00
10840;BME280;5473;42.706;23.328;2023-02-01T00:24:44;-10048.47;;;-142.93;100.00
10840;BME280;5473;42.706;23.328;2023-02-01T00:27:11;-9797.38;;;-142.93;100.00
10840;BME280;5473;42.706;23.328;2023-02-01T00:29:43;-9546.28;;;-142.93;100.00
10840;BME280;5473;42.706;23.328;2023-02-01T00:32:09;-9546.28;;;-142.93;100.00
10840;BME280;5473;42.706;23.328;2023-02-01T00:34:36;-9295.19;;;-142.93;100.00
10840;BME280;5473;42.706;23.328;2023-02-01T00:37:04;-9044.06;;;-142.93;100.00
10840;BME280;5473;42.706;23.328;2023-02-01T00:39:31;-8792.91;;;-142.93;100.00
10840;BME280;5473;42.706;23.328;2023-02-01T00:41:59;-8792.91;;;-142.93;100.00
10840;BME280;5473;42.706;23.328;2023-02-01T00:44:26;-8541.75;;;-142.93;100.00
10840;BME280;5473;42.706;23.328;2023-02-01T00:46:53;-8541.75;;;-142.93;100.00
10840;BME280;5473;42.706;23.328;2023-02-01T00:49:20;-8290.56;;;-142.93;100.00
10840;BME280;5473;42.706;23.328;2023-02-01T00:51:47;-8039.34;;;-142.93;100.00
10840;BME280;5473;42.706;23.328;2023-02-01T00:54:15;-7788.13;;;-142.93;100.00
10840;BME280;5473;42.706;23.328;2023-02-01T00:56:42;-7788.13;;;-142.93;100.00
10840;BME280;5473;42.706;23.328;2023-02-01T00:59:11;-7788.13;;;-142.93;100.00
10840;BME280;5473;42.706;23.328;2023-02-01T01:01:38;-8039.34;;;-142.93;100.00
10840;BME280;5473;42.706;23.328;2023-02-01T01:04:04;-8039.34;;;-142.93;100.00
10840;BME280;5473;42.706;23.328;2023-02-01T01:06:33;-8039.34;;;-142.93;100.00
10840;BME280;5473;42.706;23.328;2023-02-01T01:09:02;-8290.56;;;-142.93;100.00
10840;BME280;5473;42.706;23.328;2023-02-01T01:11:33;-7788.13;;;-142.93;100.00
10840;BME280;5473;42.706;23.328;2023-02-01T01:14:00;-7285.59;;;-142.93;100.00
10840;BME280;5473;42.706;23.328;2023-02-01T01:16:29;-7034.31;;;-142.93;100.00
10840;BME280;5473;42.706;23.328;2023-02-01T01:18:56;-6280.34;;;-142.93;100.00
10840;BME280;5473;42.706;23.328;2023-02-01T01:21:24;-5274.78;;;-142.93;100.00
10840;BME280;5473;42.706;23.328;2023-02-01T01:23:51;-4771.91;;;-142.93;100.00
10840;BME280;5473;42.706;23.328;2023-02-01T01:26:20;-4268.91;;;-142.93;100.00
10840;BME280;5473;42.706;23.328;2023-02-01T01:28:49;-4268.91;;;-142.93;100.00
10840;BME280;5473;42.706;23.328;2023-02-01T01:31:17;-4017.41;;;-142.93;100.00
10840;BME280;5473;42.706;23.328;2023-02-01T01:33:43;-3765.88;;;-142.93;100.00
10840;BME280;5473;42.706;23.328;2023-02-01T01:36:11;-3262.75;;;-142.93;100.00
10840;BME280;5473;42.706;23.328;2023-02-01T01:38:39;-3011.16;;;-142.93;100.00
10840;BME280;5473;42.706;23.328;2023-02-01T01:41:07;-2759.53;;;-142.93;100.00
10840;BME280;5473;42.706;23.328;2023-02-01T01:43:53;-2759.53;;;-142.93;100.00
10840;BME280;5473;42.706;23.328;2023-02-01T01:46:22;-2759.53;;;-142.93;100.00
10840;BME280;5473;42.706;23.328;2023-02-01T01:48:52;-2507.91;;;-142.93;100.00
10840;BME280;5473;42.706;23.328;2023-02-01T01:51:21;-2507.91;;;-142.93;100.00
10840;BME280;5473;42.706;23.328;2023-02-01T01:53:55;-2507.91;;;-142.93;100.00
10840;BME280;5473;42.706;23.328;2023-02-01T01:56:25;-2256.25;;;-142.93;100.00
10840;BME280;5473;42.706;23.328;2023-02-01T01:58:54;-2004.56;;;-142.93;100.00
10840;BME280;5473;42.706;23.328;2023-02-01T02:01:21;-1752.88;;;-142.93;100.00
10840;BME280;5473;42.706;23.328;2023-02-01T02:03:48;-1501.19;;;-142.93;100.00
10840;BME280;5473;42.706;23.328;2023-02-01T02:06:23;-1501.19;;;-142.93;100.00
10840;BME280;5473;42.706;23.328;2023-02-01T02:08:53;-2004.56;;;-142.93;100.00
10840;BME280;5473;42.706;23.328;2023-02-01T02:11:19;-2507.91;;;-142.93;100.00
10840;BME280;5473;42.706;23.328;2023-02-01T02:13:48;-2759.53;;;-142.93;100.00
10840;BME280;5473;42.706;23.328;2023-02-01T02:16:33;-2759.53;;;-142.93;100.00
10840;BME280;5473;42.706;23.328;2023-02-01T02:19:22;-3514.31;;;-142.93;100.00
10840;BME280;5473;42.706;23.328;2023-02-01T02:22:05;-3262.75;;;-142.93;100.00
10840;BME280;5473;42.706;23.328;2023-02-01T02:24:56;-3262.75;;;-142.93;100.00
10840;BME280;5473;42.706;23.328;2023-02-01T02:27:36;-3262.75;;;-142.93;100.00
10840;BME280;5473;42.706;23.328;2023-02-01T02:33:41;-2004.56;;;-142.93;100.00
10840;BME280;5473;42.706;23.328;2023-02-01T02:36:12;-1501.19;;;-142.93;100.00
10840;BME280;5473;42.706;23.328;2023-02-01T02:38:49;-997.69;;;-142.93;100.00
10840;BME280;5473;42.706;23.328;2023-02-01T02:41:23;-997.69;;;-142.93;100.00
10840;BME280;5473;42.706;23.328;2023-02-01T02:44:14;-1249.44;;;-142.93;100.00
10840;BME280;5473;42.706;23.328;2023-02-01T02:47:08;-1752.88;;;-142.93;100.00
10840;BME280;5473;42.706;23.328;2023-02-01T02:50:01;-2004.56;;;-142.93;100.00
10840;BME280;5473;42.706;23.328;2023-02-01T02:52:50;-2256.25;;;-142.93;100.00
10840;BME280;5473;42.706;23.328;2023-02-01T02:55:36;-2507.91;;;-142.93;100.00
10840;BME280;5473;42.706;23.328;2023-02-01T02:58:07;-2507.91;;;-142.93;100.00
10840;BME280;5473;42.706;23.328;2023-02-01T03:00:53;-2256.25;;;-142.93;100.00
10840;BME280;5473;42.706;23.328;2023-02-01T03:03:38;-1752.88;;;-142.93;100.00
10840;BME280;5473;42.706;23.328;2023-02-01T03:06:24;-997.69;;;-142.93;100.00
10840;BME280;5473;42.706;23.328;2023-02-01T03:08:54;-242.34;;;-142.93;100.00
10840;BME280;5473;42.706;23.328;2023-02-01T03:11:23;765.09;;;-142.93;100.00
10840;BME280;5473;42.706;23.328;2023-02-01T03:14:14;1268.91;;;-142.93;100.00
10840;BME280;5473;42.706;23.328;2023-02-01T03:16:46;2024.78;;;-142.93;100.00
10840;BME280;5473;42.706;23.328;2023-02-01T03:19:18;2780.84;;;-142.93;100.00
10840;BME280;5473;42.706;23.328;2023-02-01T03:21:50;2528.81;;;-142.93;100.00
10840;BME280;5473;42.706;23.328;2023-02-01T03:24:23;2528.81;;;-142.93;100.00
10840;BME280;5473;42.706;23.328;2023-02-01T03:27:02;2276.78;;;-142.93;100.00
10840;BME280;5473;42.706;23.328;2023-02-01T03:29:37;2024.78;;;-142.93;100.00
10840;BME280;5473;42.706;23.328;2023-02-01T03:32:05;1520.84;;;-142.93;100.00
10840;BME280;5473;42.706;23.328;2023-02-01T03:34:32;1268.91;;;-142.93;100.00
10840;BME280;5473;42.706;23.328;2023-02-01T03:37:03;1268.91;;;-142.93;100.00
10840;BME280;5473;42.706;23.328;2023-02-01T03:39:34;1520.84;;;-142.93;100.00
10840;BME280;5473;42.706;23.328;2023-02-01T03:42:04;1520.84;;;-142.93;100.00
10840;BME280;5473;42.706;23.328;2023-02-01T03:44:37;1520.84;;;-142.93;100.00
10840;BME280;5473;42.706;23.328;2023-02-01T03:47:06;1520.84;;;-142.93;100.00
10840;BME280;5473;42.706;23.328;2023-02-01T03:49:37;1016.97;;;-142.93;100.00
10840;BME280;5473;42.706;23.328;2023-02-01T03:52:11;765.09;;;-142.93;100.00
10840;BME280;5473;42.706;23.328;2023-02-01T03:54:40;513.19;;;-142.93;100.00
10840;BME280;5473;42.706;23.328;2023-02-01T03:57:11;9.50;;;-142.93;100.00
10840;BME280;5473;42.706;23.328;2023-02-01T03:59:40;-242.34;;;-142.93;100.00
10840;BME280;5473;42.706;23.328;2023-02-01T04:02:07;-242.34;;;-142.93;100.00
10840;BME280;5473;42.706;23.328;2023-02-01T04:04:34;-494.16;;;-142.93;100.00
10840;BME280;5473;42.706;23.328;2023-02-01T04:07:01;-494.16;;;-142.93;100.00
10840;BME280;5473;42.706;23.328;2023-02-01T04:09:30;-494.16;;;-142.93;100.00
10840;BME280;5473;42.706;23.328;2023-02-01T04:11:57;261.34;;;-142.93;100.00
10840;BME280;5473;42.706;23.328;2023-02-01T04:14:23;513.19;;;-142.93;100.00
10840;BME280;5473;42.706;23.328;2023-02-01T04:16:50;1016.97;;;-142.93;100.00
10840;BME280;5473;42.706;23.328;2023-02-01T04:19:17;1772.81;;;-142.93;100.00
10840;BME280;5473;42.706;23.328;2023-02-01T04:21:44;2024.78;;;-142.93;100.00
10840;BME280;5473;42.706;23.328;2023-02-01T04:24:11;2276.78;;;-142.93;100.00
10840;BME280;5473;42.706;23.328;2023-02-01T04:26:39;2276.78;;;-142.93;100.00
10840;BME280;5473;42.706;23.328;2023-02-01T04:29:05;2528.81;;;-142.93;100.00
10840;BME280;5473;42.706;23.328;2023-02-01T04:31:32;2276.78;;;-142.93;100.00
10840;BME280;5473;42.706;23.328;2023-02-01T04:34:02;2780.84;;;-142.93;100.00
10840;BME280;5473;42.706;23.328;2023-02-01T04:36:29;3032.91;;;-142.93;100.00
10840;BME280;5473;42.706;23.328;2023-02-01T04:38:55;3032.91;;;-142.93;100.00
10840;BME280;5473;42.706;23.328;2023-02-01T04:41:22;3284.97;;;-142.93;100.00
10840;BME280;5473;42.706;23.328;2023-02-01T04:43:50;3032.91;;;-142.93;100.00
10840;BME280;5473;42.706;23.328;2023-02-01T04:46:18;3032.91;;;-142.93;100.00
10840;BME280;5473;42.706;23.328;2023-02-01T04:48:45;2780.84;;;-142.93;100.00
10840;BME280;5473;42.706;23.328;2023-02-01T04:51:12;2528.81;;;-142.93;100.00
10840;BME280;5473;42.706;23.328;2023-02-01T04:53:40;2024.78;;;-142.93;100.00
10840;BME280;5473;42.706;23.328;2023-02-01T04:56:07;1772.81;;;-142.93;100.00
10840;BME280;5473;42.706;23.328;2023-02-01T04:58:34;1268.91;;;-142.93;100.00
10840;BME280;5473;42.706;23.328;2023-02-01T05:01:03;765.09;;;-142.93;100.00
10840;BME280;5473;42.706;23.328;2023-02-01T05:03:31;513.19;;;-142.93;100.00
10840;BME280;5473;42.706;23.328;2023-02-01T05:05:58;-242.34;;;-142.93;100.00
10840;BME280;5473;42.706;23.328;2023-02-01T05:08:25;-745.94;;;-142.93;100.00
10840;BME280;5473;42.706;23.328;2023-02-01T05:10:54;-1501.19;;;-142.93;100.00
10840;BME280;5473;42.706;23.328;2023-02-01T05:13:20;-2256.25;;;-142.93;100.00
10840;BME280;5473;42.706;23.328;2023-02-01T05:16:06;-2256.25;;;-142.93;100.00
10840;BME280;5473;42.706;23.328;2023-02-01T05:18:33;-2004.56;;;-142.93;100.00
10840;BME280;5473;42.706;23.328;2023-02-01T05:21:00;-2004.56;;;-142.93;100.00
10840;BME280;5473;42.706;23.328;2023-02-01T05:23:27;-2004.56;;;-142.93;100.00
10840;BME280;5473;42.706;23.328;2023-02-01T05:25:58;-1752.88;;;-142.93;100.00
10840;BME280;5473;42.706;23.328;2023-02-01T05:28:25;-1501.19;;;-142.93;100.00
10840;BME280;5473;42.706;23.328;2023-02-01T05:30:51;-1501.19;;;-142.93;100.00
10840;BME280;5473;42.706;23.328;2023-02-01T05:33:19;-997.69;;;-142.93;100.00
10840;BME280;5473;42.706;23.328;2023-02-01T05:35:46;-494.16;;;-142.93;100.00
10840;BME280;5473;42.706;23.328;2023-02-01T05:38:13;-242.34;;;-142.93;100.00
10840;BME280;5473;42.706;23.328;2023-02-01T05:40:40;261.34;;;-142.93;100.00
10840;BME280;5473;42.706;23.328;2023-02-01T05:43:06;513.19;;;-142.93;100.00
10840;BME280;5473;42.706;23.328;2023-02-01T05:45:33;765.09;;;-142.93;100.00
10840;BME280;5473;42.706;23.328;2023-02-01T05:48:00;765.09;;;-142.93;100.00
10840;BME280;5473;42.706;23.328;2023-02-01T05:50:28;1016.97;;;-142.93;100.00
10840;BME280;5473;42.706;23.328;2023-02-01T05:52:54;1016.97;;;-142.93;100.00
10840;BME280;5473;42.706;23.328;2023-02-01T05:55:21;1016.97;;;-142.93;100.00
10840;BME280;5473;42.706;23.328;2023-02-01T05:57:48;1268.91;;;-142.93;100.00
10840;BME280;5473;42.706;23.328;2023-02-01T06:00:15;1772.81;;;-142.93;100.00
10840;BME280;5473;42.706;23.328;2023-02-01T06:02:42;2276.78;;;-142.93;100.00
10840;BME280;5473;42.706;23.328;2023-02-01T06:05:09;2528.81;;;-142.93;100.00
10840;BME280;5473;42.706;23.328;2023-02-01T06:07:37;2528.81;;;-142.93;100.00
10840;BME280;5473;42.706;23.328;2023-02-01T06:10:04;2780.84;;;-142.93;100.00
10840;BME280;5473;42.706;23.328;2023-02-01T06:12:31;3537.09;;;-142.93;100.00
10840;BME280;5473;42.706;23.328;2023-02-01T06:14:58;3789.19;;;-142.93;100.00
10840;BME280;5473;42.706;23.328;2023-02-01T06:17:25;4293.50;;;-142.93;100.00
10840;BME280;5473;42.706;23.328;2023-02-01T06:19:52;5554.56;;;-142.93;100.00
10840;BME280;5473;42.706;23.328;2023-02-01T06:22:19;5554.56;;;-142.93;100.00
10840;BME280;5473;42.706;23.328;2023-02-01T06:24:48;5806.81;;;-142.93;100.00
10840;BME280;5473;42.706;23.328;2023-02-01T06:27:15;5806.81;;;-142.93;100.00
10840;BME280;5473;42.706;23.328;2023-02-01T06:29:42;6311.41;;;-142.93;100.00
10840;BME280;5473;42.706;23.328;2023-02-01T06:32:08;6563.75;;;-142.93;100.00
10840;BME280;5473;42.706;23.328;2023-02-01T06:34:35;7068.47;;;-142.93;100.00
10840;BME280;5473;42.706;23.328;2023-02-01T06:37:02;7320.84;;;-142.93;100.00
10840;BME280;5473;42.706;23.328;2023-02-01T06:39:29;7573.25;;;-142.93;100.00
10840;BME280;5473;42.706;23.328;2023-02-01T06:41:57;8835.56;;;-142.93;100.00
10840;BME280;5473;42.706;23.328;2023-02-01T06:44:24;9340.63;;;-142.93;100.00
10840;BME280;5473;42.706;23.328;2023-02-01T06:46:51;9088.09;;;-142.93;100.00
10840;BME280;5473;42.706;23.328;2023-02-01T06:49:17;9593.19;;;-142.93;100.00
10840;BME280;5473;42.706;23.328;2023-02-01T06:51:45;11361.66;;;-142.93;100.00
10840;BME280;5473;42.706;23.328;2023-02-01T06:54:11;11614.38;;;-142.93;100.00
10840;BME280;5473;42.706;23.328;2023-02-01T06:56:38;12372.66;;;-142.93;100.00
10840;BME280;5473;42.706;23.328;2023-02-01T06:59:07;12372.66;;;-142.93;100.00
10840;BME280;5473;42.706;23.328;2023-02-01T07:01:34;12372.66;;;-142.93;100.00
10840;BME280;5473;42.706;23.328;2023-02-01T07:04:01;12372.66;;;-142.93;100.00
10840;BME280;5473;42.706;23.328;2023-02-01T07:06:27;12625.44;;;-142.93;100.00
10840;BME280;5473;42.706;23.328;2023-02-01T07:08:54;13383.94;;;-142.93;100.00
10840;BME280;5473;42.706;23.328;2023-02-01T07:11:22;12878.25;;;-142.93;100.00
10840;BME280;5473;42.706;23.328;2023-02-01T07:13:48;13131.09;;;-142.93;100.00
10840;BME280;5473;42.706;23.328;2023-02-01T07:16:19;13636.81;;;-142.93;100.00
10840;BME280;5473;42.706;23.328;2023-02-01T07:18:46;14901.44;;;-142.93;100.00
10840;BME280;5473;42.706;23.328;2023-02-01T07:21:13;15407.44;;;-142.93;100.00
10840;BME280;5473;42.706;23.328;2023-02-01T07:23:40;15154.44;;;-142.93;100.00
10840;BME280;5473;42.706;23.328;2023-02-01T07:26:09;16166.56;;;-142.93;100.00
10840;BME280;5473;42.706;23.328;2023-02-01T07:28:37;16672.75;;;-142.93;100.00
10840;BME280;5473;42.706;23.328;2023-02-01T07:31:04;16419.66;;;-142.93;100.00
10840;BME280;5473;42.706;23.328;2023-02-01T07:33:33;17179.00;;;-142.93;100.00
10840;BME280;5473;42.706;23.328;2023-02-01T07:36:01;18445.00;;;-142.93;100.00
10840;BME280;5473;42.706;23.328;2023-02-01T07:38:28;18191.78;;;-142.93;100.00
10840;BME280;5473;42.706;23.328;2023-02-01T07:40:57;19458.16;;;-142.93;100.00
10840;BME280;5473;42.706;23.328;2023-02-01T07:43:24;20218.22;;;-142.93;100.00
10840;BME280;5473;42.706;23.328;2023-02-01T07:45:52;20978.44;;;-142.93;100.00
10840;BME280;5473;42.706;23.328;2023-02-01T07:48:19;20978.44;;;-142.93;100.00
10840;BME280;5473;42.706;23.328;2023-02-01T07:50:47;21992.38;;;-142.93;100.00
10840;BME280;5473;42.706;23.328;2023-02-01T07:53:14;23006.59;;;-142.93;100.00
10840;BME280;5473;42.706;23.328;2023-02-01T07:55:41;24021.13;;;-142.93;100.00
10840;BME280;5473;42.706;23.328;2023-02-01T07:58:08;24274.81;;;-142.93;100.00
10840;BME280;5473;42.706;23.328;2023-02-01T08:00:34;25035.97;;;-142.93;100.00
10840;BME280;5473;42.706;23.328;2023-02-01T08:03:18;25035.97;;;-142.93;100.00
10840;BME280;5473;42.706;23.328;2023-02-01T08:05:45;26051.13;;;-142.93;100.00
10840;BME280;5473;42.706;23.328;2023-02-01T08:08:13;27874.03;;;-142.93;100.00
10840;BME280;5473;42.706;23.328;2023-02-01T08:10:40;27084.44;;;-142.93;100.00
10840;BME280;5473;42.706;23.328;2023-02-01T08:13:06;29197.69;;;-142.93;100.00
10840;BME280;5473;42.706;23.328;2023-02-01T08:15:33;29999.69;;;-142.93;100.00
10840;BME280;5473;42.706;23.328;2023-02-01T08:18:00;31461.25;;;-142.93;100.00
10840;BME280;5473;42.706;23.328;2023-02-01T08:20:27;31373.88;;;-142.93;100.00
10840;BME280;5473;42.706;23.328;2023-02-01T08:22:54;33042.69;;;-142.93;100.00
10840;BME280;5473;42.706;23.328;2023-02-01T08:25:23;34189.47;;;-142.93;100.00
10840;BME280;5473;42.706;23.328;2023-02-01T08:27:49;34935.00;;;-142.93;100.00
10840;BME280;5473;42.706;23.328;2023-02-01T08:30:17;34555.28;;;-142.93;100.00
10840;BME280;5473;42.706;23.328;2023-02-01T08:32:43;34141.78;;;-142.93;100.00
10840;BME280;5473;42.706;23.328;2023-02-01T08:35:10;34935.00;;;-142.93;100.00
10840;BME280;5473;42.706;23.328;2023-02-01T08:37:37;35929.31;;;-142.93;100.00
10840;BME280;5473;42.706;23.328;2023-02-01T08:40:05;35817.94;;;-142.93;100.00
10840;BME280;5473;42.706;23.328;2023-02-01T08:42:33;36291.31;;;-142.93;100.00
10840;BME280;5473;42.706;23.328;2023-02-01T08:45:18;36768.75;;;-142.93;100.00
10840;BME280;5473;42.706;23.328;2023-02-01T08:47:45;37065.19;;;-142.93;100.00
10840;BME280;5473;42.706;23.328;2023-02-01T08:50:13;37258.16;;;-142.93;100.00
10840;BME280;5473;42.706;23.328;2023-02-01T08:52:41;37188.53;;;-142.93;100.00
10840;BME280;5473;42.706;23.328;2023-02-01T08:55:09;37626.28;;;-142.93;100.00
10840;BME280;5473;42.706;23.328;2023-02-01T08:57:37;37902.88;;;-142.93;100.00
10840;BME280;5473;42.706;23.328;2023-02-01T09:00:06;38127.78;;;-142.93;100.00
10840;BME280;5473;42.706;23.328;2023-02-01T09:02:35;38056.13;;;-142.93;100.00
10840;BME280;5473;42.706;23.328;2023-02-01T09:05:02;38173.56;;;-142.93;100.00
10840;BME280;5473;42.706;23.328;2023-02-01T09:07:29;38219.31;;;-142.93;100.00
10840;BME280;5473;42.706;23.328;2023-02-01T09:09:56;38348.69;;;-142.93;100.00
10840;BME280;5473;42.706;23.328;2023-02-01T09:12:26;38400.44;;;-142.93;100.00
10840;BME280;5473;42.706;23.328;2023-02-01T09:14:55;38450.19;;;-142.93;100.00
10840;BME280;5473;42.706;23.328;2023-02-01T09:17:22;38456.19;;;-142.93;100.00
10840;BME280;5473;42.706;23.328;2023-02-01T09:19:48;38440.25;;;-142.93;100.00
10840;BME280;5473;42.706;23.328;2023-02-01T09:22:15;38432.28;;;-142.93;100.00
10840;BME280;5473;42.706;23.328;2023-02-01T09:24:42;38478.06;;;-142.93;100.00
10840;BME280;5473;42.706;23.328;2023-02-01T09:27:09;38527.81;;;-142.93;100.00
10840;BME280;5473;42.706;23.328;2023-02-01T09:29:35;38519.88;;;-142.93;100.00
10840;BME280;5473;42.706;23.328;2023-02-01T09:32:04;38577.59;;;-142.93;100.00
10840;BME280;5473;42.706;23.328;2023-02-01T09:34:32;38581.56;;;-142.93;100.00
10840;BME280;5473;42.706;23.328;2023-02-01T09:36:59;38529.81;;;-142.93;100.00
10840;BME280;5473;42.706;23.328;2023-02-01T09:39:25;38523.84;;;-142.93;100.00
10840;BME280;5473;42.706;23.328;2023-02-01T09:41:59;38501.94;;;-142.93;100.00
10840;BME280;5473;42.706;23.328;2023-02-01T09:44:44;38364.63;;;-142.93;100.00
10840;BME280;5473;42.706;23.328;2023-02-01T09:47:17;38416.38;;;-142.93;100.00
10840;BME280;5473;42.706;23.328;2023-02-01T09:49:51;38494.00;;;-142.93;100.00
10840;BME280;5473;42.706;23.328;2023-02-01T09:52:25;38418.34;;;-142.93;100.00
10840;BME280;5473;42.706;23.328;2023-02-01T09:54:56;38515.88;;;-142.93;100.00
10840;BME280;5473;42.706;23.328;2023-02-01T09:57:38;38527.81;;;-142.93;100.00
10840;BME280;5473;42.706;23.328;2023-02-01T10:00:14;38561.66;;;-142.93;100.00
10840;BME280;5473;42.706;23.328;2023-02-01T10:02:45;38627.34;;;-142.93;100.00
10840;BME280;5473;42.706;23.328;2023-02-01T10:05:14;38577.59;;;-142.93;100.00
10840;BME280;5473;42.706;23.328;2023-02-01T10:07:48;38503.94;;;-142.93;100.00
10840;BME280;5473;42.706;23.328;2023-02-01T10:10:23;38565.66;;;-142.93;100.00
10840;BME280;5473;42.706;23.328;2023-02-01T10:13:18;38494.00;;;-142.93;100.00
10840;BME280;5473;42.706;23.328;2023-02-01T10:16:01;38360.63;;;-142.93;100.00
10840;BME280;5473;42.706;23.328;2023-02-01T10:18:45;37992.44;;;-142.93;100.00
10840;BME280;5473;42.706;23.328;2023-02-01T10:21:22;37930.75;;;-142.93;100.00
10840;BME280;5473;42.706;23.328;2023-02-01T10:24:08;38052.16;;;-142.93;100.00
10840;BME280;5473;42.706;23.328;2023-02-01T10:26:42;37865.06;;;-142.93;100.00
10840;BME280;5473;42.706;23.328;2023-02-01T10:29:15;37922.78;;;-142.93;100.00
10840;BME280;5473;42.706;23.328;2023-02-01T10:31:43;37803.38;;;-142.93;100.00
10840;BME280;5473;42.706;23.328;2023-02-01T10:34:17;37859.09;;;-142.93;100.00
10840;BME280;5473;42.706;23.328;2023-02-01T10:36:52;37783.50;;;-142.93;100.00
10840;BME280;5473;42.706;23.328;2023-02-01T10:39:19;37821.28;;;-142.93;100.00
10840;BME280;5473;42.706;23.328;2023-02-01T10:41:47;37773.53;;;-142.93;100.00
10840;BME280;5473;42.706;23.328;2023-02-01T10:44:16;37753.63;;;-142.93;100.00
10840;BME280;5473;42.706;23.328;2023-02-01T10:46:43;37881.00;;;-142.93;100.00
10840;BME280;5473;42.706;23.328;2023-02-01T10:49:15;37871.03;;;-142.93;100.00
10840;BME280;5473;42.706;23.328;2023-02-01T10:51:45;37896.91;;;-142.93;100.00
10840;BME280;5473;42.706;23.328;2023-02-01T10:54:16;37851.16;;;-142.93;100.00
10840;BME280;5473;42.706;23.328;2023-02-01T10:56:46;37809.34;;;-142.93;100.00
10840;BME280;5473;42.706;23.328;2023-02-01T10:59:16;37769.56;;;-142.93;96.90
10840;BME280;5473;42.706;23.328;2023-02-01T11:01:45;37821.28;;;-142.93;96.20
10840;BME280;5473;42.706;23.328;2023-02-01T11:04:14;37783.50;;;-142.93;92.72
10840;BME280;5473;42.706;23.328;2023-02-01T11:06:43;37869.06;;;-142.93;95.15
10840;BME280;5473;42.706;23.328;2023-02-01T11:09:16;37839.22;;;-142.93;95.58
10840;BME280;5473;42.706;23.328;2023-02-01T11:11:57;37799.41;;;-142.93;92.20
10840;BME280;5473;42.706;23.328;2023-02-01T11:14:35;37765.56;;;-142.93;88.73
10840;BME280;5473;42.706;23.328;2023-02-01T11:17:16;37855.13;;;-142.93;93.89
10840;BME280;5473;42.706;23.328;2023-02-01T11:19:46;37926.78;;;-142.93;96.25
10840;BME280;5473;42.706;23.328;2023-02-01T11:22:14;37902.88;;;-142.93;98.20
10840;BME280;5473;42.706;23.328;2023-02-01T11:24:44;37904.88;;;-142.93;96.49
10840;BME280;5473;42.706;23.328;2023-02-01T11:27:14;37916.81;;;-142.93;100.00
10840;BME280;5473;42.706;23.328;2023-02-01T11:29:44;37883.00;;;-142.93;98.28
10840;BME280;5473;42.706;23.328;2023-02-01T11:32:15;37849.16;;;-142.93;97.13
10840;BME280;5473;42.706;23.328;2023-02-01T11:34:47;37863.09;;;-142.93;95.24
10840;BME280;5473;42.706;23.328;2023-02-01T11:37:18;37843.19;;;-142.93;93.42
10840;BME280;5473;42.706;23.328;2023-02-01T11:39:54;37888.97;;;-142.93;94.97
10840;BME280;5473;42.706;23.328;2023-02-01T11:42:21;37835.22;;;-142.93;96.81
10840;BME280;5473;42.706;23.328;2023-02-01T11:44:48;37906.88;;;-142.93;97.54
10840;BME280;5473;42.706;23.328;2023-02-01T11:47:26;37922.78;;;-142.93;100.00
10840;BME280;5473;42.706;23.328;2023-02-01T11:49:56;37902.88;;;-142.93;100.00
10840;BME280;5473;42.706;23.328;2023-02-01T11:52:39;37855.13;;;-142.93;100.00
10840;BME280;5473;42.706;23.328;2023-02-01T11:55:36;37855.13;;;-142.93;100.00
10840;BME280;5473;42.706;23.328;2023-02-01T11:58:25;37920.81;;;-142.93;99.47
10840;BME280;5473;42.706;23.328;2023-02-01T12:01:17;37920.81;;;-142.93;100.00
10840;BME280;5473;42.706;23.328;2023-02-01T12:04:23;37875.03;;;-142.93;99.56
10840;BME280;5473;42.706;23.328;2023-02-01T12:07:04;37932.75;;;-142.93;100.00
10840;BME280;5473;42.706;23.328;2023-02-01T12:09:45;37930.75;;;-142.93;100.00
10840;BME280;5473;42.706;23.328;2023-02-01T12:12:21;37902.88;;;-142.93;100.00
10840;BME280;5473;42.706;23.328;2023-02-01T12:15:08;37912.84;;;-142.93;100.00
10840;BME280;5473;42.706;23.328;2023-02-01T12:17:53;37890.94;;;-142.93;100.00
10840;BME280;5473;42.706;23.328;2023-02-01T12:20:52;37918.81;;;-142.93;100.00
10840;BME280;5473;42.706;23.328;2023-02-01T12:23:37;37916.81;;;-142.93;100.00
10840;BME280;5473;42.706;23.328;2023-02-01T12:26:26;37928.75;;;-142.93;100.00
10840;BME280;5473;42.706;23.328;2023-02-01T12:29:10;37902.88;;;-142.93;100.00
10840;BME280;5473;42.706;23.328;2023-02-01T12:31:57;37972.53;;;-142.93;100.00
10840;BME280;5473;42.706;23.328;2023-02-01T12:34:47;37948.66;;;-142.93;100.00
10840;BME280;5473;42.706;23.328;2023-02-01T12:37:25;37942.69;;;-142.93;100.00
10840;BME280;5473;42.706;23.328;2023-02-01T12:40:02;37898.91;;;-142.93;100.00
10840;BME280;5473;42.706;23.328;2023-02-01T12:42:37;37972.53;;;-142.93;100.00
10840;BME280;5473;42.706;23.328;2023-02-01T12:45:12;37855.13;;;-142.93;100.00
10840;BME280;5473;42.706;23.328;2023-02-01T12:47:44;37966.56;;;-142.93;100.00
10840;BME280;5473;42.706;23.328;2023-02-01T12:50:19;37992.44;;;-142.93;100.00
10840;BME280;5473;42.706;23.328;2023-02-01T12:52:50;37950.66;;;-142.93;100.00
10840;BME280;5473;42.706;23.328;2023-02-01T12:55:22;37950.66;;;-142.93;100.00